Time;durP1;ratioP1;P1;durP2;ratioP2;P2;SDS_P1;SDS_P2;PMS_P1;PMS_P2;Temp;Humidity;BMP_temperature;BMP_pressure;BME280_temperature;BME280_humidity;BME280_pressure;Samples;Min_cycle;Max_cycle;Signal;HPM_P1;HPM_P2
2021/06/17 00:00:43;;;;;;;;;;;21.90;87.40;;;;;;4932259;28;75626;-69
2021/06/17 00:03:09;;;;;;;;;;;21.90;87.50;;;;;;4932208;28;75314;-67
2021/06/17 00:05:35;;;;;;;;;;;21.90;87.20;;;;;;4932088;28;75174;-68
2021/06/17 00:08:02;;;;;;;;;;;22.00;87.20;;;;;;4930879;28;77015;-68
2021/06/17 00:10:35;;;;;;;;;;;21.90;87.00;;;;;;4931946;28;74509;-68
2021/06/17 00:13:04;;;;;;;;;;;21.90;86.90;;;;;;4931589;28;75179;-70
2021/06/17 00:15:31;;;;;;;;;;;21.80;86.90;;;;;;4963133;28;77815;-68
2021/06/17 00:17:57;;;;;;;;;;;21.90;86.80;;;;;;4931534;28;75299;-67
2021/06/17 00:20:23;;;;;;;;;;;21.90;86.70;;;;;;4930599;28;76495;-69
2021/06/17 00:22:49;;;;;;;;;;;21.90;86.70;;;;;;4931028;28;75659;-70
2021/06/17 00:25:15;;;;;;;;;;;21.90;86.50;;;;;;4930399;28;74791;-70
2021/06/17 00:27:41;;;;;;;;;;;21.80;86.50;;;;;;4932047;28;74445;-69
2021/06/17 00:30:07;;;;;;;;;;;21.80;86.30;;;;;;4931679;28;75312;-70
2021/06/17 00:32:33;;;;;;;;;;;21.80;86.20;;;;;;4930343;28;77713;-68
2021/06/17 00:34:58;;;;;;;;;;;21.80;86.30;;;;;;4931682;28;75012;-69
2021/06/17 00:37:24;;;;;;;;;;;21.90;86.10;;;;;;4931342;28;76485;-71
2021/06/17 00:39:49;;;;;;;;;;;21.80;86.20;;;;;;4931556;28;75353;-69
2021/06/17 00:42:15;;;;;;;;;;;21.80;86.00;;;;;;4931684;28;75162;-69
2021/06/17 00:44:41;;;;;;;;;;;21.80;85.80;;;;;;4930290;28;77775;-68
2021/06/17 00:47:06;;;;;;;;;;;21.70;85.90;;;;;;4962333;28;76391;-69
2021/06/17 00:49:32;;;;;;;;;;;21.70;86.10;;;;;;4930037;28;75651;-71
2021/06/17 00:51:58;;;;;;;;;;;21.70;86.00;;;;;;4931484;28;75433;-69
2021/06/17 00:54:33;;;;;;;;;;;21.70;85.80;;;;;;4931973;28;74512;-69
2021/06/17 00:57:06;;;;;;;;;;;21.70;85.60;;;;;;4931425;28;76136;-70
2021/06/17 00:59:31;;;;;;;;;;;21.70;85.70;;;;;;4929947;28;76162;-70
2021/06/17 01:01:57;;;;;;;;;;;21.70;85.50;;;;;;4929834;28;77897;-70
2021/06/17 01:04:24;;;;;;;;;;;21.70;85.60;;;;;;4931363;28;75157;-67
2021/06/17 01:06:50;;;;;;;;;;;21.70;85.30;;;;;;4931640;28;75748;-66
2021/06/17 01:09:23;;;;;;;;;;;21.70;85.50;;;;;;4931156;28;74994;-69
2021/06/17 01:11:55;;;;;;;;;;;21.70;85.20;;;;;;4929510;28;76880;-67
2021/06/17 01:14:24;;;;;;;;;;;21.70;85.20;;;;;;4929552;28;77508;-68
2021/06/17 01:17:05;;;;;;;;;;;21.70;85.20;;;;;;4929645;28;77761;-68
2021/06/17 01:19:31;;;;;;;;;;;21.70;85.00;;;;;;4931252;28;75057;-67
2021/06/17 01:22:06;;;;;;;;;;;21.70;85.00;;;;;;4931175;28;74429;-68
2021/06/17 01:24:41;;;;;;;;;;;21.70;85.10;;;;;;4930160;28;76498;-67
2021/06/17 01:27:15;;;;;;;;;;;21.70;84.90;;;;;;4930760;28;75384;-67
2021/06/17 01:29:44;;;;;;;;;;;21.70;84.70;;;;;;4929618;28;74772;-67
2021/06/17 01:32:10;;;;;;;;;;;21.70;84.80;;;;;;4930272;28;75135;-67
2021/06/17 01:34:37;;;;;;;;;;;21.70;84.80;;;;;;4932571;28;75460;-68
2021/06/17 01:37:05;;;;;;;;;;;21.80;84.90;;;;;;4934031;28;75782;-67
2021/06/17 01:39:32;;;;;;;;;;;21.80;85.00;;;;;;4934216;28;74935;-70
2021/06/17 01:41:59;;;;;;;;;;;21.80;84.70;;;;;;4933087;28;76590;-68
2021/06/17 01:44:25;;;;;;;;;;;21.80;84.60;;;;;;4932758;28;75985;-68
2021/06/17 01:46:52;;;;;;;;;;;21.80;84.80;;;;;;4932254;28;77039;-67
2021/06/17 01:49:18;;;;;;;;;;;21.70;84.30;;;;;;4933931;28;75032;-69
2021/06/17 01:51:44;;;;;;;;;;;21.70;84.70;;;;;;4932493;28;76235;-69
2021/06/17 01:54:20;;;;;;;;;;;21.70;84.60;;;;;;4933840;28;75285;-69
2021/06/17 01:56:46;;;;;;;;;;;21.70;85.00;;;;;;4933967;28;75335;-69
2021/06/17 01:59:12;;;;;;;;;;;21.70;84.70;;;;;;4934370;28;74505;-69
2021/06/17 02:01:38;;;;;;;;;;;21.70;84.50;;;;;;4933600;28;75795;-71
2021/06/17 02:04:04;;;;;;;;;;;21.70;84.30;;;;;;4933830;28;75180;-70
2021/06/17 02:06:30;;;;;;;;;;;21.70;83.10;;;;;;4933740;28;75622;-70
2021/06/17 02:08:56;;;;;;;;;;;21.70;82.80;;;;;;4933708;28;74467;-69
2021/06/17 02:11:23;;;;;;;;;;;21.60;80.80;;;;;;4933827;28;74561;-69
2021/06/17 02:13:49;;;;;;;;;;;21.50;81.10;;;;;;4933528;28;75877;-69
2021/06/17 02:16:15;;;;;;;;;;;21.40;80.60;;;;;;4933746;28;75260;-73
2021/06/17 02:18:40;;;;;;;;;;;21.10;81.00;;;;;;4933356;28;75280;-69
2021/06/17 02:21:09;;;;;;;;;;;20.40;80.60;;;;;;4932233;28;78582;-75
2021/06/17 02:23:36;;;;;;;;;;;19.50;81.80;;;;;;4933252;28;75728;-70
2021/06/17 02:26:04;;;;;;;;;;;18.60;84.40;;;;;;4933473;28;76447;-69
2021/06/17 02:28:32;;;;;;;;;;;18.30;86.50;;;;;;4933321;28;76280;-65
2021/06/17 02:30:59;;;;;;;;;;;17.90;87.50;;;;;;4934056;28;76655;-67
2021/06/17 02:33:25;;;;;;;;;;;17.90;88.80;;;;;;4933062;28;75361;-75
2021/06/17 02:35:52;;;;;;;;;;;17.70;89.30;;;;;;4933143;28;76594;-67
2021/06/17 02:38:20;;;;;;;;;;;17.60;89.60;;;;;;4932174;28;78442;-71
2021/06/17 02:40:47;;;;;;;;;;;17.50;90.10;;;;;;4931740;28;76517;-69
2021/06/17 02:43:21;;;;;;;;;;;17.40;90.20;;;;;;4932197;28;77549;-66
2021/06/17 02:45:49;;;;;;;;;;;17.30;90.30;;;;;;4931385;28;76677;-66
2021/06/17 02:48:15;;;;;;;;;;;17.30;90.60;;;;;;4931586;28;76036;-67
2021/06/17 02:50:41;;;;;;;;;;;17.20;90.50;;;;;;4933167;28;75389;-68
2021/06/17 02:53:07;;;;;;;;;;;17.20;90.70;;;;;;4933737;28;74496;-69
2021/06/17 02:55:33;;;;;;;;;;;17.10;90.70;;;;;;4932029;28;76141;-66
2021/06/17 02:57:58;;;;;;;;;;;17.10;90.90;;;;;;4933110;28;75052;-70
2021/06/17 03:00:27;;;;;;;;;;;17.20;91.10;;;;;;4933147;28;74962;-67
2021/06/17 03:03:03;;;;;;;;;;;17.10;90.80;;;;;;4931755;28;75593;-66
2021/06/17 03:05:32;;;;;;;;;;;17.00;91.20;;;;;;4933128;28;75196;-67
2021/06/17 03:08:00;;;;;;;;;;;17.00;91.10;;;;;;4931756;28;75782;-65
2021/06/17 03:10:27;;;;;;;;;;;17.10;91.10;;;;;;4931428;28;77682;-69
2021/06/17 03:12:54;;;;;;;;;;;17.10;91.30;;;;;;4931367;28;74633;-66
2021/06/17 03:15:20;;;;;;;;;;;17.20;91.40;;;;;;4931395;28;77417;-64
2021/06/17 03:17:48;;;;;;;;;;;17.10;91.20;;;;;;4933050;28;74471;-65
2021/06/17 03:20:14;;;;;;;;;;;17.00;91.10;;;;;;4933014;28;75762;-64
2021/06/17 03:22:42;;;;;;;;;;;16.90;91.30;;;;;;4931617;28;75389;-67
2021/06/17 03:25:11;;;;;;;;;;;17.10;91.70;;;;;;4933323;28;75593;-66
2021/06/17 03:27:37;;;;;;;;;;;17.20;91.70;;;;;;4933409;28;76376;-65
2021/06/17 03:30:04;;;;;;;;;;;17.30;91.90;;;;;;4932936;28;75270;-69
2021/06/17 03:32:30;;;;;;;;;;;17.30;91.60;;;;;;4932169;28;75236;-66
2021/06/17 03:34:57;;;;;;;;;;;17.20;91.30;;;;;;4933144;28;75086;-64
2021/06/17 03:37:24;;;;;;;;;;;17.00;91.30;;;;;;4933172;28;74557;-68
2021/06/17 03:39:51;;;;;;;;;;;16.90;91.90;;;;;;4931072;28;77074;-68
2021/06/17 03:42:17;;;;;;;;;;;16.90;91.90;;;;;;4932950;28;75251;-66
2021/06/17 03:44:43;;;;;;;;;;;16.90;92.20;;;;;;4932799;28;76595;-65
2021/06/17 03:47:11;;;;;;;;;;;17.10;92.40;;;;;;4931121;28;75956;-64
2021/06/17 03:49:37;;;;;;;;;;;17.30;92.40;;;;;;4930994;28;77306;-69
2021/06/17 03:52:03;;;;;;;;;;;17.40;92.40;;;;;;4931828;28;76811;-70
2021/06/17 03:54:29;;;;;;;;;;;17.50;92.50;;;;;;4932683;28;74546;-67
2021/06/17 03:56:57;;;;;;;;;;;17.50;92.30;;;;;;4929995;28;77932;-64
2021/06/17 03:59:24;;;;;;;;;;;17.50;92.30;;;;;;4931418;28;77259;-66
2021/06/17 04:01:50;;;;;;;;;;;17.50;92.30;;;;;;4933169;28;75435;-67
2021/06/17 04:04:16;;;;;;;;;;;17.60;92.20;;;;;;4932344;28;75649;-64
2021/06/17 04:06:42;;;;;;;;;;;17.60;92.00;;;;;;4930692;28;76679;-64
2021/06/17 04:09:08;;;;;;;;;;;17.50;91.90;;;;;;4933114;28;74337;-71
2021/06/17 04:11:34;;;;;;;;;;;17.50;92.10;;;;;;4930893;28;75539;-70
2021/06/17 04:14:00;;;;;;;;;;;17.50;92.30;;;;;;4932152;28;75468;-72
2021/06/17 04:16:26;;;;;;;;;;;17.60;92.40;;;;;;4932289;28;75601;-70
2021/06/17 04:18:53;;;;;;;;;;;17.60;92.00;;;;;;4930407;28;77220;-64
2021/06/17 04:21:19;;;;;;;;;;;17.70;92.30;;;;;;4932576;28;75800;-69
2021/06/17 04:23:46;;;;;;;;;;;17.90;92.50;;;;;;4932224;28;75272;-71
2021/06/17 04:26:16;;;;;;;;;;;17.90;92.20;;;;;;4932157;28;75376;-71
2021/06/17 04:28:42;;;;;;;;;;;17.80;92.00;;;;;;4932202;28;74340;-66
2021/06/17 04:31:08;;;;;;;;;;;17.90;92.30;;;;;;4931892;28;74445;-71
2021/06/17 04:33:34;;;;;;;;;;;18.00;92.30;;;;;;4931827;28;76299;-71
2021/06/17 04:36:02;;;;;;;;;;;17.90;92.20;;;;;;4931929;28;75752;-72
2021/06/17 04:38:27;;;;;;;;;;;18.00;92.10;;;;;;4930857;28;77172;-67
2021/06/17 04:40:53;;;;;;;;;;;18.10;92.10;;;;;;4930399;28;75364;-72
2021/06/17 04:43:22;;;;;;;;;;;18.20;92.20;;;;;;4931998;28;75168;-72
2021/06/17 04:45:52;;;;;;;;;;;18.20;92.00;;;;;;4930463;28;75784;-73
2021/06/17 04:48:18;;;;;;;;;;;18.20;92.00;;;;;;4930149;28;77025;-72
2021/06/17 04:50:44;;;;;;;;;;;18.10;92.00;;;;;;4931930;28;75497;-67
2021/06/17 04:53:11;;;;;;;;;;;18.20;92.10;;;;;;4931537;28;75868;-73
2021/06/17 04:55:42;;;;;;;;;;;18.20;92.00;;;;;;4931727;28;75535;-64
2021/06/17 04:58:08;;;;;;;;;;;18.20;92.00;;;;;;4932182;28;74575;-64
2021/06/17 05:00:34;;;;;;;;;;;18.20;92.10;;;;;;4931757;28;77001;-64
2021/06/17 05:02:59;;;;;;;;;;;18.20;92.00;;;;;;4930270;28;77195;-65
2021/06/17 05:05:25;;;;;;;;;;;18.20;92.10;;;;;;4931848;28;74504;-64
2021/06/17 05:10:47;;;;;;;;;;;18.20;92.20;;;;;;4929735;28;77261;-64
2021/06/17 05:10:49;;;;;;;;;;;18.20;92.20;;;;;;4931102;28;75519;-66
2021/06/17 05:13:15;;;;;;;;;;;18.30;92.30;;;;;;4931253;28;77516;-65
2021/06/17 05:15:41;;;;;;;;;;;18.30;92.30;;;;;;4931361;28;75761;-72
2021/06/17 05:18:07;;;;;;;;;;;18.40;92.20;;;;;;4931331;28;74376;-69
2021/06/17 05:20:32;;;;;;;;;;;18.40;92.30;;;;;;4929949;28;76405;-69
2021/06/17 05:22:58;;;;;;;;;;;18.40;92.20;;;;;;4931289;28;75361;-65
2021/06/17 05:25:23;;;;;;;;;;;18.40;92.30;;;;;;4929905;28;74616;-67
2021/06/17 05:27:49;;;;;;;;;;;18.40;92.30;;;;;;4929777;28;77034;-67
2021/06/17 05:30:15;;;;;;;;;;;18.50;92.30;;;;;;4931442;28;75740;-73
2021/06/17 05:32:42;;;;;;;;;;;18.60;92.40;;;;;;4929971;28;77962;-65
2021/06/17 05:35:08;;;;;;;;;;;18.60;92.20;;;;;;4922110;28;75760;-66
2021/06/17 05:37:34;;;;;;;;;;;18.70;92.30;;;;;;4927084;28;77213;-62
2021/06/17 05:39:59;;;;;;;;;;;18.60;92.20;;;;;;4926860;28;75076;-63
2021/06/17 05:42:25;;;;;;;;;;;18.50;92.10;;;;;;4928430;28;75451;-65
2021/06/17 05:44:53;;;;;;;;;;;18.50;92.30;;;;;;4927487;28;75071;-61
2021/06/17 05:47:19;;;;;;;;;;;18.50;92.30;;;;;;4926308;28;77280;-62
2021/06/17 05:49:44;;;;;;;;;;;18.40;92.20;;;;;;4927352;28;75544;-62
2021/06/17 05:52:10;;;;;;;;;;;18.40;92.30;;;;;;4926909;28;75688;-61
2021/06/17 05:54:36;;;;;;;;;;;18.50;92.30;;;;;;4926129;28;76025;-62
2021/06/17 05:57:01;;;;;;;;;;;18.40;92.20;;;;;;4920575;28;76042;-62
2021/06/17 05:59:27;;;;;;;;;;;18.40;92.20;;;;;;4926716;28;78005;-61
2021/06/17 06:01:52;;;;;;;;;;;18.40;92.30;;;;;;4928142;28;76096;-64
2021/06/17 06:04:18;;;;;;;;;;;18.40;92.30;;;;;;4927349;28;75425;-63
2021/06/17 06:06:44;;;;;;;;;;;18.40;92.30;;;;;;4928240;28;75824;-63
2021/06/17 06:09:09;;;;;;;;;;;18.40;92.30;;;;;;4927862;28;75208;-63
2021/06/17 06:11:35;;;;;;;;;;;18.50;92.40;;;;;;4927935;28;76143;-61
2021/06/17 06:14:01;;;;;;;;;;;18.50;92.30;;;;;;4926875;28;75889;-70
2021/06/17 06:16:28;;;;;;;;;;;18.50;92.30;;;;;;4926258;28;76890;-65
2021/06/17 06:18:54;;;;;;;;;;;18.50;92.20;;;;;;4926289;28;75533;-71
2021/06/17 06:21:20;;;;;;;;;;;18.50;92.30;;;;;;4930877;28;76655;-74
2021/06/17 06:23:45;;;;;;;;;;;18.50;92.20;;;;;;4930599;28;75993;-70
2021/06/17 06:26:11;;;;;;;;;;;18.60;92.40;;;;;;4929557;28;76016;-66
2021/06/17 06:28:37;;;;;;;;;;;18.60;92.40;;;;;;4931355;28;75875;-66
2021/06/17 06:31:03;;;;;;;;;;;18.70;92.40;;;;;;4928702;28;76461;-66
2021/06/17 06:33:28;;;;;;;;;;;18.80;92.50;;;;;;4929661;28;77085;-62
2021/06/17 06:35:54;;;;;;;;;;;18.80;92.40;;;;;;4929816;28;75945;-64
2021/06/17 06:38:20;;;;;;;;;;;18.90;92.40;;;;;;4927775;28;76672;-64
2021/06/17 06:40:45;;;;;;;;;;;18.90;92.40;;;;;;4930485;28;75570;-65
2021/06/17 06:43:13;;;;;;;;;;;19.00;92.30;;;;;;4930367;28;76181;-65
2021/06/17 06:45:39;;;;;;;;;;;19.00;92.20;;;;;;4930379;28;76321;-65
2021/06/17 06:48:05;;;;;;;;;;;18.90;92.30;;;;;;4930452;28;75914;-64
2021/06/17 06:50:31;;;;;;;;;;;19.00;92.30;;;;;;4928975;28;76280;-63
2021/06/17 06:52:57;;;;;;;;;;;19.00;92.30;;;;;;4929511;28;75149;-65
2021/06/17 06:55:23;;;;;;;;;;;19.10;92.40;;;;;;4928665;28;75809;-66
2021/06/17 06:57:49;;;;;;;;;;;19.10;92.40;;;;;;4929920;28;75754;-64
2021/06/17 07:00:16;;;;;;;;;;;19.10;92.30;;;;;;4930316;28;75554;-64
2021/06/17 07:02:41;;;;;;;;;;;19.20;92.30;;;;;;4928331;28;76392;-65
2021/06/17 07:05:08;;;;;;;;;;;19.30;92.30;;;;;;4928097;28;75887;-63
2021/06/17 07:07:33;;;;;;;;;;;19.30;92.30;;;;;;4930199;28;75664;-65
2021/06/17 07:09:59;;;;;;;;;;;19.30;92.20;;;;;;4930027;28;75590;-66
2021/06/17 07:12:25;;;;;;;;;;;19.40;92.20;;;;;;4928110;28;76446;-64
2021/06/17 07:14:51;;;;;;;;;;;19.40;92.20;;;;;;4928511;28;77208;-65
2021/06/17 07:17:16;;;;;;;;;;;19.40;92.20;;;;;;4928397;28;76437;-64
2021/06/17 07:19:42;;;;;;;;;;;19.40;92.10;;;;;;4928384;28;77141;-65
2021/06/17 07:22:08;;;;;;;;;;;19.40;92.10;;;;;;4929463;28;75788;-64
2021/06/17 07:24:34;;;;;;;;;;;19.30;92.10;;;;;;4928129;28;76709;-65
2021/06/17 07:27:00;;;;;;;;;;;19.40;92.20;;;;;;4930249;28;76342;-65
2021/06/17 07:29:25;;;;;;;;;;;19.40;92.20;;;;;;4929310;28;76578;-66
2021/06/17 07:31:51;;;;;;;;;;;19.40;92.00;;;;;;4929756;28;75066;-65
2021/06/17 07:34:16;;;;;;;;;;;19.40;92.00;;;;;;4929018;28;75778;-65
2021/06/17 07:36:43;;;;;;;;;;;19.40;92.10;;;;;;4930350;28;75108;-65
2021/06/17 07:39:10;;;;;;;;;;;19.40;92.00;;;;;;4929622;28;75926;-66
2021/06/17 07:41:36;;;;;;;;;;;19.40;92.00;;;;;;4930400;28;75225;-65
2021/06/17 07:44:02;;;;;;;;;;;19.40;92.00;;;;;;4928500;28;77409;-65
2021/06/17 07:46:27;;;;;;;;;;;19.40;92.10;;;;;;4928537;28;77359;-64
2021/06/17 07:48:53;;;;;;;;;;;19.40;91.90;;;;;;4928811;28;76151;-66
2021/06/17 07:51:18;;;;;;;;;;;19.30;91.90;;;;;;4929373;28;75241;-66
2021/06/17 07:53:44;;;;;;;;;;;19.30;91.90;;;;;;4928464;28;77084;-65
2021/06/17 07:56:10;;;;;;;;;;;19.30;91.90;;;;;;4928153;28;77092;-66
2021/06/17 07:58:35;;;;;;;;;;;19.30;91.80;;;;;;4928220;28;76504;-65
2021/06/17 08:01:01;;;;;;;;;;;19.30;91.70;;;;;;4929680;28;76011;-65
2021/06/17 08:03:30;;;;;;;;;;;19.20;91.80;;;;;;4928568;28;77401;-65
2021/06/17 08:05:55;;;;;;;;;;;19.20;91.80;;;;;;4928629;28;77077;-65
2021/06/17 08:08:21;;;;;;;;;;;19.00;91.70;;;;;;4927032;28;76640;-66
2021/06/17 08:10:46;;;;;;;;;;;19.00;91.60;;;;;;4929481;28;75063;-65
2021/06/17 08:13:12;;;;;;;;;;;19.00;91.70;;;;;;4944058;28;76556;-66
2021/06/17 08:15:38;;;;;;;;;;;18.90;91.80;;;;;;4929751;28;75872;-63
2021/06/17 08:18:04;;;;;;;;;;;19.00;91.70;;;;;;4927588;28;77802;-65
2021/06/17 08:20:29;;;;;;;;;;;19.00;91.60;;;;;;4929746;28;75348;-65
2021/06/17 08:22:56;;;;;;;;;;;18.90;91.50;;;;;;4929710;28;74611;-66
2021/06/17 08:25:21;;;;;;;;;;;18.90;91.50;;;;;;4928277;28;74712;-65
2021/06/17 08:27:47;;;;;;;;;;;18.90;91.50;;;;;;4922805;28;77283;-65
2021/06/17 08:30:17;;;;;;;;;;;19.00;91.50;;;;;;4926583;28;76769;-66
2021/06/17 08:32:43;;;;;;;;;;;19.00;91.50;;;;;;4929021;28;75023;-65
2021/06/17 08:35:08;;;;;;;;;;;19.10;91.50;;;;;;4927978;28;77490;-66
2021/06/17 08:37:34;;;;;;;;;;;19.10;91.50;;;;;;4928879;28;76377;-66
2021/06/17 08:40:00;;;;;;;;;;;19.00;91.40;;;;;;4928895;28;76055;-66
2021/06/17 08:42:30;;;;;;;;;;;19.00;91.40;;;;;;4929060;28;75986;-66
2021/06/17 08:44:56;;;;;;;;;;;19.10;91.40;;;;;;4915404;28;77501;-66
2021/06/17 08:47:23;;;;;;;;;;;19.10;91.50;;;;;;4928501;28;75892;-66
2021/06/17 08:49:51;;;;;;;;;;;19.20;91.30;;;;;;4928890;28;75089;-66
2021/06/17 08:52:17;;;;;;;;;;;19.20;91.30;;;;;;4929000;28;75706;-65
2021/06/17 08:54:43;;;;;;;;;;;19.30;91.20;;;;;;4927518;28;77206;-65
2021/06/17 08:57:08;;;;;;;;;;;19.30;91.10;;;;;;4928855;28;75084;-66
2021/06/17 08:59:38;;;;;;;;;;;19.30;91.10;;;;;;4927412;28;77619;-66
2021/06/17 09:02:04;;;;;;;;;;;19.20;91.00;;;;;;4929367;28;75612;-67
2021/06/17 09:04:31;;;;;;;;;;;19.20;91.10;;;;;;4928763;28;75784;-66
2021/06/17 09:07:00;;;;;;;;;;;19.10;91.10;;;;;;4927648;28;75285;-66
2021/06/17 09:09:32;;;;;;;;;;;19.10;91.10;;;;;;4929223;28;74643;-66
2021/06/17 09:11:57;;;;;;;;;;;19.20;91.00;;;;;;4927465;28;76933;-66
2021/06/17 09:14:26;;;;;;;;;;;19.20;91.10;;;;;;4927974;28;75158;-66
2021/06/17 09:17:01;;;;;;;;;;;19.40;91.10;;;;;;4925298;28;77239;-67
2021/06/17 09:19:40;;;;;;;;;;;19.40;91.10;;;;;;4958345;28;75805;-66
2021/06/17 09:22:07;;;;;;;;;;;19.50;91.10;;;;;;4927075;28;75817;-64
2021/06/17 09:24:36;;;;;;;;;;;19.60;91.00;;;;;;4928748;28;75250;-67
2021/06/17 09:27:21;;;;;;;;;;;19.70;91.00;;;;;;4926961;28;76717;-67
2021/06/17 09:29:47;;;;;;;;;;;19.80;91.00;;;;;;4928008;28;75537;-67
2021/06/17 09:32:17;;;;;;;;;;;19.90;90.90;;;;;;4928510;28;76753;-66
2021/06/17 09:34:43;;;;;;;;;;;19.80;90.70;;;;;;4926674;28;77076;-68
2021/06/17 09:37:25;;;;;;;;;;;19.90;90.80;;;;;;4928140;28;74983;-67
2021/06/17 09:39:51;;;;;;;;;;;19.80;90.80;;;;;;4958641;28;77570;-67
2021/06/17 09:42:16;;;;;;;;;;;19.70;90.90;;;;;;4926968;28;76299;-67
2021/06/17 09:44:42;;;;;;;;;;;19.70;91.00;;;;;;4928989;28;75339;-67
2021/06/17 09:47:08;;;;;;;;;;;19.80;90.90;;;;;;4927544;28;76287;-68
2021/06/17 09:49:34;;;;;;;;;;;19.90;90.90;;;;;;4926923;28;77740;-68
2021/06/17 09:51:59;;;;;;;;;;;20.00;90.90;;;;;;4927263;28;77518;-67
2021/06/17 09:54:26;;;;;;;;;;;19.90;90.80;;;;;;4925949;28;75251;-67
2021/06/17 09:57:03;;;;;;;;;;;19.90;90.90;;;;;;4920959;28;78740;-68
2021/06/17 09:59:32;;;;;;;;;;;20.00;90.80;;;;;;4927764;28;77291;-67
2021/06/17 10:01:57;;;;;;;;;;;20.10;91.00;;;;;;4931422;28;74564;-68
2021/06/17 10:04:23;;;;;;;;;;;20.20;90.80;;;;;;4930368;28;76142;-68
2021/06/17 10:06:50;;;;;;;;;;;20.20;90.90;;;;;;4930641;28;75364;-68
2021/06/17 10:09:19;;;;;;;;;;;20.30;91.00;;;;;;4930815;28;75315;-67
2021/06/17 10:11:45;;;;;;;;;;;20.40;90.90;;;;;;4931845;28;74526;-66
2021/06/17 10:14:11;;;;;;;;;;;20.40;90.70;;;;;;4930012;28;74586;-66
2021/06/17 10:16:42;;;;;;;;;;;20.40;90.50;;;;;;4931221;28;76165;-67
2021/06/17 10:19:08;;;;;;;;;;;20.40;90.70;;;;;;4929156;28;74639;-66
2021/06/17 10:21:34;;;;;;;;;;;20.40;90.70;;;;;;4928353;28;77740;-66
2021/06/17 10:24:04;;;;;;;;;;;20.50;90.60;;;;;;4931459;28;75841;-66
2021/06/17 10:26:39;;;;;;;;;;;20.50;90.50;;;;;;4929065;28;74665;-66
2021/06/17 10:29:05;;;;;;;;;;;20.10;89.60;;;;;;4931069;28;75294;-66
2021/06/17 10:31:49;;;;;;;;;;;19.90;89.20;;;;;;4930814;28;75554;-66
2021/06/17 10:34:35;;;;;;;;;;;19.50;89.00;;;;;;4929405;28;77041;-66
2021/06/17 10:37:06;;;;;;;;;;;19.40;89.00;;;;;;4929110;28;75025;-66
2021/06/17 10:39:57;;;;;;;;;;;19.30;89.20;;;;;;4928914;28;76170;-66
2021/06/17 10:42:25;;;;;;;;;;;19.20;87.90;;;;;;4930454;28;75485;-67
2021/06/17 10:44:53;;;;;;;;;;;18.90;87.90;;;;;;4930492;28;75428;-66
2021/06/17 10:47:38;;;;;;;;;;;18.80;87.90;;;;;;4930714;28;75187;-66
2021/06/17 10:50:07;;;;;;;;;;;18.60;87.60;;;;;;4930200;28;75201;-66
2021/06/17 10:52:33;;;;;;;;;;;18.30;87.60;;;;;;4929128;28;75838;-67
2021/06/17 10:55:00;;;;;;;;;;;18.10;88.40;;;;;;4927391;28;76835;-66
2021/06/17 11:00:21;;;;;;;;;;;18.00;89.10;;;;;;4926777;28;75011;-66
2021/06/17 11:02:50;;;;;;;;;;;18.00;89.30;;;;;;4930269;28;75906;-66
2021/06/17 11:05:34;;;;;;;;;;;18.10;88.90;;;;;;4928898;28;74719;-66
2021/06/17 11:08:19;;;;;;;;;;;18.00;89.00;;;;;;4929984;28;76023;-66
2021/06/17 11:10:58;;;;;;;;;;;18.10;89.20;;;;;;4926873;28;75608;-66
2021/06/17 11:13:30;;;;;;;;;;;18.20;89.40;;;;;;4928736;28;75694;-65
2021/06/17 11:16:00;;;;;;;;;;;18.20;89.20;;;;;;4929024;28;77390;-64
2021/06/17 11:18:46;;;;;;;;;;;18.30;89.30;;;;;;4919873;28;75725;-65
2021/06/17 11:21:21;;;;;;;;;;;18.40;89.40;;;;;;4928987;28;75174;-65
2021/06/17 11:23:47;;;;;;;;;;;18.20;88.90;;;;;;4929841;28;75325;-65
2021/06/17 11:26:33;;;;;;;;;;;18.10;89.20;;;;;;4929439;28;76734;-64
2021/06/17 11:28:58;;;;;;;;;;;18.10;89.20;;;;;;4927733;28;75701;-66
2021/06/17 11:31:43;;;;;;;;;;;18.10;89.40;;;;;;4928137;28;75872;-67
2021/06/17 11:34:10;;;;;;;;;;;18.00;89.50;;;;;;4926771;28;75291;-66
2021/06/17 11:36:46;;;;;;;;;;;18.10;89.80;;;;;;4927579;28;76199;-63
2021/06/17 11:39:12;;;;;;;;;;;18.20;89.70;;;;;;4929331;28;76113;-66
2021/06/17 11:41:39;;;;;;;;;;;18.20;89.70;;;;;;4929119;28;75133;-64
2021/06/17 11:44:05;;;;;;;;;;;18.00;89.50;;;;;;4928023;28;75730;-63
2021/06/17 11:46:36;;;;;;;;;;;17.90;89.90;;;;;;4928441;28;75174;-64
2021/06/17 11:49:06;;;;;;;;;;;18.00;90.30;;;;;;4929596;28;74765;-64
2021/06/17 11:51:51;;;;;;;;;;;18.30;90.60;;;;;;4928458;28;74818;-63
2021/06/17 11:54:21;;;;;;;;;;;18.50;90.90;;;;;;4927682;28;75060;-64
2021/06/17 11:56:47;;;;;;;;;;;18.80;90.50;;;;;;4929198;28;76111;-63
2021/06/17 11:59:17;;;;;;;;;;;18.90;90.80;;;;;;4928842;28;76347;-65
2021/06/17 12:02:01;;;;;;;;;;;19.00;90.40;;;;;;4929369;28;75617;-65
2021/06/17 12:04:47;;;;;;;;;;;19.10;90.40;;;;;;4927137;28;76189;-65
2021/06/17 12:07:15;;;;;;;;;;;19.10;90.60;;;;;;4925575;28;76469;-65
2021/06/17 12:09:41;;;;;;;;;;;19.30;90.80;;;;;;4928145;28;75359;-64
2021/06/17 12:12:17;;;;;;;;;;;19.40;90.80;;;;;;4928894;28;75330;-64
2021/06/17 12:14:43;;;;;;;;;;;19.40;90.70;;;;;;4929673;28;76586;-66
2021/06/17 12:17:09;;;;;;;;;;;19.40;90.60;;;;;;4925867;28;75502;-65
2021/06/17 12:19:35;;;;;;;;;;;19.50;90.60;;;;;;4928419;28;74747;-66
2021/06/17 12:22:08;;;;;;;;;;;19.50;90.50;;;;;;4925395;28;76310;-67
2021/06/17 12:24:34;;;;;;;;;;;19.60;90.60;;;;;;4927259;28;75982;-66
2021/06/17 12:27:00;;;;;;;;;;;19.80;90.90;;;;;;4929295;28;76266;-66
2021/06/17 12:29:28;;;;;;;;;;;19.90;90.90;;;;;;4927894;28;76466;-66
2021/06/17 12:31:55;;;;;;;;;;;20.00;90.60;;;;;;4925140;28;76251;-65
2021/06/17 12:34:21;;;;;;;;;;;20.00;90.60;;;;;;4924625;28;77530;-66
2021/06/17 12:37:00;;;;;;;;;;;20.20;90.80;;;;;;4927170;28;76866;-66
2021/06/17 12:39:26;;;;;;;;;;;20.50;91.10;;;;;;4926817;28;76646;-65
2021/06/17 12:41:52;;;;;;;;;;;20.80;91.10;;;;;;4930638;28;75413;-63
2021/06/17 12:44:27;;;;;;;;;;;21.40;92.10;;;;;;4930531;28;77985;-65
2021/06/17 12:46:58;;;;;;;;;;;22.80;93.80;;;;;;4932251;28;74472;-65
2021/06/17 12:52:02;;;;;;;;;;;28.60;94.90;;;;;;4928936;28;75120;-65
2021/06/17 12:54:30;;;;;;;;;;;31.20;92.20;;;;;;4932259;28;75503;-66
2021/06/17 12:57:03;;;;;;;;;;;33.30;87.00;;;;;;4931938;28;74606;-65
2021/06/17 12:59:34;;;;;;;;;;;33.80;74.80;;;;;;4931176;28;75064;-66
2021/06/17 13:02:00;;;;;;;;;;;31.90;60.80;;;;;;4930020;28;77291;-65
2021/06/17 13:04:26;;;;;;;;;;;29.90;66.70;;;;;;4931299;28;75747;-66
2021/06/17 13:06:51;;;;;;;;;;;28.30;68.40;;;;;;4931486;28;75305;-67
2021/06/17 13:09:27;;;;;;;;;;;26.90;66.40;;;;;;4930245;28;74426;-64
2021/06/17 13:12:18;;;;;;;;;;;26.00;68.60;;;;;;4931712;28;75177;-66
2021/06/17 13:14:59;;;;;;;;;;;25.40;69.40;;;;;;4930562;28;76572;-66
2021/06/17 13:17:25;;;;;;;;;;;24.90;71.90;;;;;;4931423;28;75629;-65
2021/06/17 13:19:52;;;;;;;;;;;24.70;69.70;;;;;;4931304;28;74479;-66
2021/06/17 13:22:20;;;;;;;;;;;24.50;65.60;;;;;;4931496;28;75379;-67
2021/06/17 13:24:46;;;;;;;;;;;24.60;69.80;;;;;;4929718;28;75550;-65
2021/06/17 13:27:17;;;;;;;;;;;24.60;68.40;;;;;;4929837;28;77204;-67
2021/06/17 13:29:53;;;;;;;;;;;24.60;67.70;;;;;;4931271;28;75452;-69
2021/06/17 13:32:19;;;;;;;;;;;24.40;65.90;;;;;;4932717;28;77016;-68
2021/06/17 13:34:44;;;;;;;;;;;24.00;61.30;;;;;;4934196;28;75031;-68
2021/06/17 13:37:10;;;;;;;;;;;23.70;63.20;;;;;;4934178;28;75168;-68
2021/06/17 13:39:36;;;;;;;;;;;23.40;62.70;;;;;;4934846;28;74409;-68
2021/06/17 13:42:02;;;;;;;;;;;23.30;66.80;;;;;;4932880;28;77695;-69
2021/06/17 13:44:28;;;;;;;;;;;23.20;63.10;;;;;;4934242;28;75262;-69
2021/06/17 13:46:54;;;;;;;;;;;23.20;66.30;;;;;;4932624;28;75725;-66
2021/06/17 13:49:20;;;;;;;;;;;23.20;65.80;;;;;;4932681;28;76998;-66
2021/06/17 13:51:46;;;;;;;;;;;23.30;68.80;;;;;;4934140;28;74469;-68
2021/06/17 13:54:12;;;;;;;;;;;23.20;64.40;;;;;;4934027;28;74559;-67
2021/06/17 13:56:37;;;;;;;;;;;23.00;63.50;;;;;;4934548;28;75417;-67
2021/06/17 13:59:04;;;;;;;;;;;22.90;66.50;;;;;;4933510;28;74559;-67
2021/06/17 14:01:30;;;;;;;;;;;22.90;68.60;;;;;;4934380;28;75577;-68
2021/06/17 14:03:56;;;;;;;;;;;22.90;65.60;;;;;;4932439;28;75741;-66
2021/06/17 14:06:21;;;;;;;;;;;23.00;69.70;;;;;;4932216;28;75233;-68
2021/06/17 14:08:47;;;;;;;;;;;23.20;64.00;;;;;;4933888;28;75172;-67
2021/06/17 14:11:13;;;;;;;;;;;23.10;64.40;;;;;;4964697;28;76400;-67
2021/06/17 14:13:38;;;;;;;;;;;23.20;66.00;;;;;;4933640;28;74775;-70
2021/06/17 14:16:05;;;;;;;;;;;23.40;66.10;;;;;;4933519;28;75156;-67
2021/06/17 14:18:30;;;;;;;;;;;23.90;64.60;;;;;;4933296;28;74484;-68
2021/06/17 14:20:56;;;;;;;;;;;24.90;64.00;;;;;;4933334;28;74659;-66
2021/06/17 14:23:21;;;;;;;;;;;25.90;63.10;;;;;;4930191;28;78176;-67
2021/06/17 14:25:49;;;;;;;;;;;25.90;50.70;;;;;;4933064;28;75557;-68